Weather at Eggenfelden Airfield

Public forecast

Using degrees Celsius for public forecast. Weather courtesy of forecast.io.

Closest aviation weather report (METAR) to Eggenfelden Airfield

Closest report is Munich Airport, 37.5 nm (69.4 km) W.

2024/05/24 13:50 (retrieved 15 minutes ago)

EDDM 241350Z AUTO 27004KT 180V320 9999 BKN037 BKN048 18/10 Q1017 NOSIG

Closest aviation forecast (TAF) to Eggenfelden Airfield

Closest forecast is Munich Airport, 37.5 nm (69.4 km) W.

2024/05/24 12:27 (retrieved 2 hours ago)

TAF TAF EDDM 241100Z 2412/2518 25004KT 9999 FEW020 SCT040 PROB30 TEMPO 2423/2502 SHRA SCT040TCU PROB30 TEMPO 2502/2506 2000 BCFG BECMG 2511/2513 31005KT PROB40 TEMPO 2512/2517 TSRA SCT012 BKN020CB BECMG 2516/2518 24004KT